CER9 weather

Fort Nelson (Parker Lake) Seaplane Base
Fort Nelson, British Columbia, Canada

Public forecast

Using degrees Celsius for public forecast. Weather courtesy of forecast.io.

Closest aviation weather report (METAR) to Fort Nelson (Parker Lake) Seaplane Base

Closest report is Fort Nelson Airport, 9.5 nm (17.5 km) E. Retrieved 2019/10/15 17:00 UTC (21 minutes ago):

CYYE 151700Z 35003KT 3SM -SN SCT008 OVC028 M00/M01 A2972 RMK SF3SC5 SLP086

Closest aviation forecast (TAF) to Fort Nelson (Parker Lake) Seaplane Base

Forecast is more than 6 hours old.

Closest forecast is Fort Nelson Airport, 9.5 nm (17.5 km) E. Retrieved 2019/10/15 07:42 UTC (10 hours ago):

TAF CYYE 150638Z 1507/1519 33005KT P6SM SCT020 OVC040 TEMPO 1507/1508 BKN020 OVC040 FM150800 03005KT P6SM SCT020 SCT040 OVC100 TEMPO 1508/1512 BKN020 BKN040 OVC100 FM151300 10005KT P6SM -SN BKN025 OVC060 TEMPO 1513/1516 11/2SM -SN BKN020 OVC060 FM151600 12008KT P6SM -RASN SCT006 OVC015 TEMPO 1516/1519 11/2SM -RASN OVC006 RMK NXT FCST BY 151300Z